Weather Models
Both GFS & NAM
00z 06z 12z 18z
24hr Precip
00z 06z 12z 18z
36hr Simulated radar
00z 06z 12z 18z
SKEWT Soundings
00z 12z
Current Conditions (Updated 9:20am on 5/7/21)
Temperature
 61°
4.10
61°  
53°  
0
10
20
30
40
50
60
70
80
90
100
Dew Point
30°
30°  
25°  
-20
-10
0
10
20
30
40
50
60
70
80
Wind Chill
60°
61°  
49°  
-20
-10
0
10
20
30
40
50
60
70
80
Wind Chill
Humidity
30%
35% 
27% 
0
10
20
30
40
50
60
70
80
90
100
Barometer
29.96
   Steady
29.99  
29.96  
28.00
28.30
28.60
28.90
29.20
29.50
29.80
30.10
30.40
30.70
31.00
Temperature
Dew Point
Humidity
Pressure
Wind
10mph
ENE
Daily Rain
.00
.05
.10
.15
.20
.25
.30
.35
.40
.45
.50
Rain Today
 0.00" 
Month Rain
0.00
0.20
0.40
0.60
0.80
1.00
1.20
1.40
1.60
1.80
2.00
Month Rain
 0.58" 
Year Rain
0.00
2.50
5.00
7.50
10.00
12.50
15.00
17.50
20.00
22.50
25.00
Year Rain
 12.48" 
Sun & Moon Data
Sunrise 5:52am
Sunset 8:00pm
Moonrise 4:18am
Moonset 4:10pm
Moon % 21%
Other Rain Data
Past Hour 0.00 Past 24 Hours 0.00
Past 3 Hours 0.00 Past 7 Days 0.58
Past 6 Hours 0.00
Cloud Height
7913


7 Day Forecast
NWS Forecast for Philadelphia PA
National Weather Service Forecast for: Philadelphia PA
Issued by: National Weather Service Philadelphia, PA
Updated: 7:10 am EDT May 7, 2021

Philadelphia PA.
 
Today

Today: Increasing clouds, with a high near 67. Northeast wind around 5 mph becoming southeast in the afternoon.
Increasing
Clouds
Tonight

Tonight: Showers likely, mainly after 3am.  Mostly cloudy, with a low around 48. East wind around 5 mph becoming calm  after midnight.  Chance of precipitation is 60%. New precipitation amounts between a tenth and quarter of an inch possible.
Showers
Likely
Saturday

Saturday: A chance of showers, mainly after 11am.  Mostly cloudy, with a high near 58. Light north wind becoming northwest 5 to 10 mph in the afternoon.  Chance of precipitation is 40%. New precipitation amounts between a tenth and quarter of an inch possible.
Chance
Showers
Saturday
Night
Saturday Night: A chance of showers before 9pm.  Partly cloudy, with a low around 45. West wind 5 to 10 mph.  Chance of precipitation is 30%. New precipitation amounts of less than a tenth of an inch possible.
Chance
Showers then
Mostly Clear
Sunday

Sunday: A chance of rain after 3pm.  Partly sunny, with a high near 63. West wind 5 to 10 mph.  Chance of precipitation is 40%. New precipitation amounts of less than a tenth of an inch possible.
Mostly Sunny
then Chance
Rain
Sunday
Night
Sunday Night: Rain likely, mainly after 9pm.  Cloudy, with a low around 52. Chance of precipitation is 70%. New precipitation amounts between a tenth and quarter of an inch possible.
Rain Likely

Monday

Monday: Rain likely before 9am, then a chance of showers after 9am.  Mostly cloudy, with a high near 68. Chance of precipitation is 70%.
Rain Likely

Monday
Night
Monday Night: A chance of showers before 9pm.  Partly cloudy, with a low around 48. Chance of precipitation is 40%.
Chance
Showers then
Partly Cloudy
Tuesday

Tuesday: Mostly sunny, with a high near 64.
Mostly Sunny

Hi 67 °F Lo 48 °F Hi 58 °F Lo 45 °F Hi 63 °F Lo 52 °F Hi 68 °F Lo 48 °F Hi 64 °F

 

Today
 
Increasing clouds, with a high near 67. Northeast wind around 5 mph becoming southeast in the afternoon.
Tonight
 
Showers likely, mainly after 3am. Mostly cloudy, with a low around 48. East wind around 5 mph becoming calm after midnight. Chance of precipitation is 60%. New precipitation amounts between a tenth and quarter of an inch possible.
Saturday
 
A chance of showers, mainly after 11am. Mostly cloudy, with a high near 58. Light north wind becoming northwest 5 to 10 mph in the afternoon. Chance of precipitation is 40%. New precipitation amounts between a tenth and quarter of an inch possible.
Saturday Night
 
A chance of showers before 9pm. Partly cloudy, with a low around 45. West wind 5 to 10 mph. Chance of precipitation is 30%. New precipitation amounts of less than a tenth of an inch possible.
Sunday
 
A chance of rain after 3pm. Partly sunny, with a high near 63. West wind 5 to 10 mph. Chance of precipitation is 40%. New precipitation amounts of less than a tenth of an inch possible.
Sunday Night
 
Rain likely, mainly after 9pm. Cloudy, with a low around 52. Chance of precipitation is 70%. New precipitation amounts between a tenth and quarter of an inch possible.
Monday
 
Rain likely before 9am, then a chance of showers after 9am. Mostly cloudy, with a high near 68. Chance of precipitation is 70%.
Monday Night
 
A chance of showers before 9pm. Partly cloudy, with a low around 48. Chance of precipitation is 40%.
Tuesday
 
Mostly sunny, with a high near 64.
Tuesday Night
 
Mostly clear, with a low around 45.
Wednesday
 
Sunny, with a high near 67.
Wednesday Night
 
Partly cloudy, with a low around 47.
Thursday
 
A chance of showers. Partly sunny, with a high near 67. Chance of precipitation is 40%.

 

Forecast from NOAA-NWS for Philadelphia PA.

Current Front Map
Current Radar
Area Weather Current Conditions
Nearby METAR Reports

KPHL - Philadelphia, Pennsylvania
Updated: Fri, 07-May-2021 8:54am EDT
Mostly Cloudy
Mostly Cloudy
 Wind from NE
Wind: NE 7 mph , 11 km/h, Gust: 16 mph , 26 km/h
Temperature: 55°F , 13°C
Dew Point: 32°F , 0°C
Humidity: 41%
Barometer: 29.92 inHg , 1013.2 hPa
Clouds: Mostly Cloudy
Visibility: 10 miles , 16 km
Cloud details: Mostly Cloudy 25000 ft
2021/05/07 12:54 KPHL 071254Z 05006G14KT 10SM BKN250 13/00 A2992 RMK AO2 SLP132 T01330000
KMPO - Mt. Pocono, Pennsylvania
Updated: Fri, 07-May-2021 8:53am EDT
Clear
Clear
 Wind from ESE
Wind: ESE 12 mph , 19 km/h, Gust: 18 mph , 30 km/h
Temperature: 46°F , 8°C
Wind Chill: 40°F , 4°C
Dew Point: 27°F , -3°C
Humidity: 46%
Barometer: 29.91 inHg , 1012.9 hPa
Clouds: Clear
Visibility: 10 miles , 16 km
2021/05/07 12:53 KMPO 071253Z AUTO 11010G16KT 10SM CLR 08/M03 A2991 RMK AO2 SLP134 T00831028
 
KACY - Atlantic City, New Jersey
Updated: Fri, 07-May-2021 8:54am EDT
Clear
Clear
 Wind from E
Wind: E 9 mph , 15 km/h
Temperature: 57°F , 14°C
Dew Point: 37°F , 3°C
Humidity: 48%
Barometer: 29.91 inHg , 1012.9 hPa
Clouds: Clear
Visibility: 10 miles , 16 km
2021/05/07 12:54 KACY 071254Z 10008KT 10SM CLR 14/03 A2991 RMK AO2 SLP128 T01440028
KMIV - Millville, New Jersey
Updated: Fri, 07-May-2021 8:54am EDT
Clear
Clear
 Wind from E
Wind: E 10 mph , 17 km/h
Temperature: 57°F , 14°C
Dew Point: 32°F , 0°C
Humidity: 39%
Barometer: 29.90 inHg , 1012.5 hPa
Clouds: Clear
Visibility: 10 miles , 16 km
2021/05/07 12:54 KMIV 071254Z AUTO 08009KT 10SM CLR 14/00 A2990 RMK AO2 SLP125 T01390000
 
KWWD - Wildwood, New Jersey
Updated: Fri, 07-May-2021 8:56am EDT
Clear
Clear
 Wind from ENE
Wind: ENE 13 mph , 20 km/h
Temperature: 57°F , 14°C
Dew Point: 41°F , 5°C
Humidity: 55%
Barometer: 29.91 inHg , 1012.9 hPa
Clouds: Clear
Visibility: 10 miles , 16 km
2021/05/07 12:56 KWWD 071256Z AUTO 07011KT 10SM CLR 14/05 A2991 RMK AO2 SLP129 T01440050 $
KDOV - Dover Afb, Delaware
Updated: Fri, 07-May-2021 8:56am EDT
Clear
Clear
 Wind from ENE
Wind: ENE 8 mph , 13 km/h
Temperature: 55°F , 13°C
Dew Point: 39°F , 4°C
Humidity: 55%
Barometer: 29.90 inHg , 1012.5 hPa
Clouds: Clear
Visibility: 10 miles , 16 km
2021/05/07 12:56 KDOV 071256Z AUTO 06007KT 10SM CLR 13/04 A2990 RMK AO2 SLP129 T01310035 $
Severe Weather Map